This is the latest recevied weather packets stored in our database for station/object CW79215. If no packets are shown the sender has not sent any weather packets the latest 10 day(s).
| Time | Temp. | Humidity | Pressure | Rain* | Wind** | Luminosity | Snow |
|---|---|---|---|---|---|---|---|
| 1777544542 | 18.89° C | 27% | 1026.1 hPa | - | - | - | - |
| 1777543642 | 18.89° C | 25% | 1026.4 hPa | - | - | - | - |
| 1777542742 | 19.44° C | 26% | 1026.2 hPa | - | - | - | - |
| 1777541842 | 20° C | 24% | 1026.4 hPa | - | - | - | - |
| 1777540942 | 18.89° C | 27% | 1026.6 hPa | - | - | - | - |
| 1777540042 | 18.89° C | 31% | 1026.6 hPa | - | - | - | - |
| 1777539142 | 20° C | 25% | 1026.6 hPa | - | - | - | - |
| 1777538242 | 20° C | 23% | 1026.6 hPa | - | - | - | - |
| 1777537342 | 19.44° C | 24% | 1026.5 hPa | - | - | - | - |
| 1777536441 | 19.44° C | 28% | 1026.5 hPa | - | - | - | - |
| 1777535541 | 19.44° C | 27% | 1026.5 hPa | - | - | - | - |
| 1777534641 | 19.44° C | 27% | 1026.5 hPa | - | - | - | - |
| 1777533741 | 19.44° C | 23% | 1026.4 hPa | - | - | - | - |
| 1777532841 | 18.89° C | 27% | 1026.4 hPa | - | - | - | - |
| 1777531941 | 17.78° C | 28% | 1026.5 hPa | - | - | - | - |
| 1777531036 | 17.78° C | 28% | 1026.4 hPa | - | - | - | - |
| 1777530136 | 17.22° C | 32% | 1026.5 hPa | - | - | - | - |
| 1777529236 | 16.67° C | 29% | 1026.5 hPa | - | - | - | - |
| 1777528336 | 12.78° C | 34% | 1026.6 hPa | - | - | - | - |
| 1777527436 | 12.22° C | 33% | 1026.6 hPa | - | - | - | - |
| 1777526535 | 12.22° C | 35% | 1026.4 hPa | - | - | - | - |
| 1777525635 | 11.11° C | 37% | 1026.3 hPa | - | - | - | - |
| 1777524735 | 10.56° C | 37% | 1026.4 hPa | - | - | - | - |
| 1777523835 | 10.56° C | 40% | 1026.3 hPa | - | - | - | - |
| 1777522935 | 11.11° C | 37% | 1026.3 hPa | - | - | - | - |
* Rain since midnight (hover to see other rain measurements)
** Current wind speed in m/s (hover to see current wind gust speed)